www.cux-wetter.de
Wetterdaten: Samstag, 12.12.2009
Datum Zeit Temp. A. Feuchte A. Luftdruck Regen Wind Richtung Richtung Sonnenschein Solar Taupunkt Windchill Windben
12.12.2009 00:04 5,1 C 83 % 1027,5 hPa 0,0 l/m 10,2 km/h (2 Bft) NO 50 0 min 0 W/m 2,5 C 2,0 C 10,2 km/h (2 Bft)
12.12.2009 00:09 5,1 C 83 % 1027,5 hPa 0,0 l/m 14,1 km/h (3 Bft) NO 35 0 min 0 W/m 2,5 C -0,3 C 14,1 km/h (3 Bft)
12.12.2009 00:14 4,9 C 83 % 1027,5 hPa 0,0 l/m 12,8 km/h (3 Bft) NO 55 0 min 0 W/m 2,3 C 0,2 C 12,8 km/h (3 Bft)
12.12.2009 00:19 4,9 C 83 % 1028,5 hPa 0,0 l/m 13,6 km/h (3 Bft) NO 40 0 min 0 W/m 2,3 C -0,3 C 13,6 km/h (3 Bft)
12.12.2009 00:24 4,9 C 83 % 1028,5 hPa 0,0 l/m 12,0 km/h (2 Bft) NO 45 0 min 0 W/m 2,3 C 0,6 C 12,0 km/h (2 Bft)
12.12.2009 00:29 4,8 C 84 % 1028,5 hPa 0,0 l/m 16,8 km/h (3 Bft) NO 45 0 min 0 W/m 2,3 C -2,0 C 16,8 km/h (3 Bft)
12.12.2009 00:34 4,8 C 84 % 1028,5 hPa 0,0 l/m 9,6 km/h (2 Bft) NO 40 0 min 0 W/m 2,3 C 2,1 C 9,6 km/h (2 Bft)
12.12.2009 00:39 4,8 C 84 % 1028,5 hPa 0,0 l/m 12,2 km/h (2 Bft) NO 45 0 min 0 W/m 2,3 C 0,4 C 12,2 km/h (2 Bft)
12.12.2009 00:44 4,8 C 84 % 1028,5 hPa 0,0 l/m 8,9 km/h (2 Bft) NO 40 0 min 0 W/m 2,3 C 2,7 C 8,9 km/h (2 Bft)
12.12.2009 00:49 4,9 C 84 % 1028,5 hPa 0,0 l/m 10,0 km/h (2 Bft) NO 45 0 min 0 W/m 2,4 C 2,0 C 10,0 km/h (2 Bft)
12.12.2009 00:54 4,8 C 84 % 1028,5 hPa 0,0 l/m 13,1 km/h (3 Bft) NO 40 0 min 0 W/m 2,3 C -0,1 C 13,1 km/h (3 Bft)
12.12.2009 00:59 4,8 C 84 % 1028,5 hPa 0,0 l/m 15,1 km/h (3 Bft) NO 40 0 min 0 W/m 2,3 C -1,2 C 15,1 km/h (3 Bft)
12.12.2009 01:04 4,8 C 84 % 1028,5 hPa 0,0 l/m 12,1 km/h (2 Bft) NO 45 0 min 0 W/m 2,3 C 0,5 C 12,1 km/h (2 Bft)
12.12.2009 01:09 4,9 C 84 % 1028,5 hPa 0,0 l/m 19,1 km/h (3 Bft) N-NO 30 0 min 0 W/m 2,4 C -2,9 C 19,1 km/h (3 Bft)
12.12.2009 01:14 4,9 C 84 % 1028,5 hPa 0,0 l/m 14,1 km/h (3 Bft) NO 50 0 min 0 W/m 2,4 C -0,6 C 14,1 km/h (3 Bft)
12.12.2009 01:19 4,9 C 84 % 1028,5 hPa 0,0 l/m 12,0 km/h (2 Bft) NO 55 0 min 0 W/m 2,4 C 0,6 C 12,0 km/h (2 Bft)
12.12.2009 01:23 4,9 C 84 % 1028,5 hPa 0,0 l/m 11,9 km/h (2 Bft) NO 55 0 min 0 W/m 2,4 C 0,7 C 11,9 km/h (2 Bft)
12.12.2009 01:29 4,9 C 84 % 1028,5 hPa 0,0 l/m 9,6 km/h (2 Bft) NO 45 0 min 0 W/m 2,4 C 2,2 C 9,6 km/h (2 Bft)
12.12.2009 01:34 4,9 C 84 % 1028,5 hPa 0,0 l/m 9,4 km/h (2 Bft) NO 45 0 min 0 W/m 2,4 C 2,4 C 9,4 km/h (2 Bft)
12.12.2009 01:39 4,9 C 84 % 1028,5 hPa 0,0 l/m 11,6 km/h (2 Bft) NO 45 0 min 0 W/m 2,4 C 0,9 C 11,6 km/h (2 Bft)
12.12.2009 01:44 4,9 C 84 % 1028,5 hPa 0,0 l/m 15,6 km/h (3 Bft) O-NO 60 0 min 0 W/m 2,4 C -1,3 C 15,6 km/h (3 Bft)
12.12.2009 01:49 4,9 C 84 % 1028,5 hPa 0,0 l/m 14,8 km/h (3 Bft) NO 45 0 min 0 W/m 2,4 C -0,9 C 14,8 km/h (3 Bft)
12.12.2009 01:54 4,8 C 84 % 1028,5 hPa 0,0 l/m 14,4 km/h (3 Bft) NO 50 0 min 0 W/m 2,3 C -0,9 C 14,4 km/h (3 Bft)
12.12.2009 01:59 4,8 C 84 % 1028,5 hPa 0,0 l/m 15,8 km/h (3 Bft) O-NO 60 0 min 0 W/m 2,3 C -1,6 C 15,8 km/h (3 Bft)
12.12.2009 02:04 4,8 C 84 % 1028,5 hPa 0,0 l/m 14,0 km/h (3 Bft) NO 35 0 min 0 W/m 2,3 C -0,6 C 14,0 km/h (3 Bft)
12.12.2009 02:09 4,8 C 84 % 1028,5 hPa 0,0 l/m 12,2 km/h (2 Bft) NO 50 0 min 0 W/m 2,3 C 0,4 C 12,2 km/h (2 Bft)
12.12.2009 02:14 4,8 C 84 % 1028,5 hPa 0,0 l/m 21,0 km/h (4 Bft) O-NO 60 0 min 0 W/m 2,3 C -3,8 C 21,0 km/h (4 Bft)
12.12.2009 02:19 4,8 C 84 % 1028,5 hPa 0,0 l/m 11,6 km/h (2 Bft) NO 50 0 min 0 W/m 2,3 C 0,8 C 11,6 km/h (2 Bft)
12.12.2009 02:24 4,9 C 84 % 1028,5 hPa 0,0 l/m 14,5 km/h (3 Bft) O-NO 60 0 min 0 W/m 2,4 C -0,8 C 14,5 km/h (3 Bft)
12.12.2009 02:29 4,9 C 84 % 1028,5 hPa 0,0 l/m 14,5 km/h (3 Bft) O-NO 60 0 min 0 W/m 2,4 C -0,8 C 14,5 km/h (3 Bft)
12.12.2009 02:34 4,9 C 84 % 1028,5 hPa 0,0 l/m 11,6 km/h (2 Bft) NO 35 0 min 0 W/m 2,4 C 0,9 C 11,6 km/h (2 Bft)
12.12.2009 02:39 4,9 C 84 % 1028,5 hPa 0,0 l/m 14,0 km/h (3 Bft) NO 50 0 min 0 W/m 2,4 C -0,5 C 14,0 km/h (3 Bft)
12.12.2009 02:44 4,9 C 84 % 1028,5 hPa 0,0 l/m 14,5 km/h (3 Bft) NO 50 0 min 0 W/m 2,4 C -0,8 C 14,5 km/h (3 Bft)
12.12.2009 02:48 4,9 C 84 % 1028,5 hPa 0,0 l/m 13,3 km/h (3 Bft) NO 50 0 min 0 W/m 2,4 C -0,1 C 13,3 km/h (3 Bft)
12.12.2009 02:54 4,9 C 83 % 1028,5 hPa 0,0 l/m 18,0 km/h (3 Bft) NO 50 0 min 0 W/m 2,3 C -2,5 C 18,0 km/h (3 Bft)
12.12.2009 02:59 4,9 C 83 % 1028,5 hPa 0,0 l/m 15,9 km/h (3 Bft) NO 40 0 min 0 W/m 2,3 C -1,5 C 15,9 km/h (3 Bft)
12.12.2009 03:04 4,9 C 84 % 1028,5 hPa 0,0 l/m 14,6 km/h (3 Bft) NO 50 0 min 0 W/m 2,4 C -0,8 C 14,6 km/h (3 Bft)
12.12.2009 03:09 4,8 C 83 % 1028,5 hPa 0,0 l/m 17,2 km/h (3 Bft) NO 50 0 min 0 W/m 2,2 C -2,2 C 17,2 km/h (3 Bft)
12.12.2009 03:14 4,8 C 84 % 1028,5 hPa 0,0 l/m 15,3 km/h (3 Bft) NO 50 0 min 0 W/m 2,3 C -1,3 C 15,3 km/h (3 Bft)
12.12.2009 03:19 4,8 C 84 % 1028,5 hPa 0,0 l/m 18,1 km/h (3 Bft) NO 55 0 min 0 W/m 2,3 C -2,6 C 18,1 km/h (3 Bft)
12.12.2009 03:24 4,8 C 84 % 1028,5 hPa 0,0 l/m 16,3 km/h (3 Bft) NO 45 0 min 0 W/m 2,3 C -1,8 C 16,3 km/h (3 Bft)
12.12.2009 03:29 4,8 C 83 % 1028,5 hPa 0,0 l/m 16,2 km/h (3 Bft) NO 40 0 min 0 W/m 2,2 C -1,8 C 16,2 km/h (3 Bft)
12.12.2009 03:34 4,8 C 83 % 1028,5 hPa 0,0 l/m 10,2 km/h (2 Bft) NO 50 0 min 0 W/m 2,2 C 1,7 C 10,2 km/h (2 Bft)
12.12.2009 03:39 4,8 C 83 % 1028,5 hPa 0,0 l/m 15,8 km/h (3 Bft) NO 50 0 min 0 W/m 2,2 C -1,6 C 15,8 km/h (3 Bft)
12.12.2009 03:44 4,7 C 83 % 1028,5 hPa 0,0 l/m 19,0 km/h (3 Bft) NO 45 0 min 0 W/m 2,1 C -3,1 C 19,0 km/h (3 Bft)
12.12.2009 03:49 4,8 C 83 % 1028,5 hPa 0,0 l/m 16,1 km/h (3 Bft) NO 50 0 min 0 W/m 2,2 C -1,7 C 16,1 km/h (3 Bft)
12.12.2009 03:54 4,7 C 83 % 1028,5 hPa 0,0 l/m 16,5 km/h (3 Bft) NO 50 0 min 0 W/m 2,1 C -2,0 C 16,5 km/h (3 Bft)
12.12.2009 03:59 4,7 C 83 % 1028,5 hPa 0,0 l/m 12,0 km/h (2 Bft) NO 40 0 min 0 W/m 2,1 C 0,4 C 12,0 km/h (2 Bft)
12.12.2009 04:04 4,7 C 82 % 1028,5 hPa 0,0 l/m 13,5 km/h (3 Bft) NO 45 0 min 0 W/m 1,9 C -0,5 C 13,5 km/h (3 Bft)
12.12.2009 04:09 4,7 C 82 % 1028,5 hPa 0,0 l/m 18,7 km/h (3 Bft) NO 40 0 min 0 W/m 1,9 C -3,0 C 18,7 km/h (3 Bft)
12.12.2009 04:14 4,7 C 82 % 1028,5 hPa 0,0 l/m 10,6 km/h (2 Bft) O-NO 60 0 min 0 W/m 1,9 C 1,3 C 10,6 km/h (2 Bft)
12.12.2009 04:19 4,7 C 81 % 1028,5 hPa 0,0 l/m 14,5 km/h (3 Bft) NO 45 0 min 0 W/m 1,7 C -1,0 C 14,5 km/h (3 Bft)
12.12.2009 04:24 4,6 C 81 % 1028,5 hPa 0,0 l/m 13,9 km/h (3 Bft) NO 45 0 min 0 W/m 1,6 C -0,8 C 13,9 km/h (3 Bft)
12.12.2009 04:29 4,6 C 81 % 1028,5 hPa 0,0 l/m 17,5 km/h (3 Bft) NO 50 0 min 0 W/m 1,6 C -2,6 C 17,5 km/h (3 Bft)
12.12.2009 04:34 4,5 C 81 % 1028,5 hPa 0,0 l/m 14,1 km/h (3 Bft) NO 55 0 min 0 W/m 1,5 C -1,0 C 14,1 km/h (3 Bft)
12.12.2009 04:39 4,5 C 82 % 1028,5 hPa 0,0 l/m 13,7 km/h (3 Bft) NO 50 0 min 0 W/m 1,7 C -0,8 C 13,7 km/h (3 Bft)
12.12.2009 04:44 4,6 C 81 % 1028,5 hPa 0,0 l/m 13,3 km/h (3 Bft) NO 55 0 min 0 W/m 1,6 C -0,5 C 13,3 km/h (3 Bft)
12.12.2009 04:49 4,6 C 81 % 1028,5 hPa 0,0 l/m 17,6 km/h (3 Bft) NO 50 0 min 0 W/m 1,6 C -2,7 C 17,6 km/h (3 Bft)
12.12.2009 04:54 4,6 C 80 % 1028,5 hPa 0,0 l/m 12,7 km/h (3 Bft) NO 40 0 min 0 W/m 1,5 C -0,1 C 12,7 km/h (3 Bft)
12.12.2009 04:59 4,6 C 80 % 1028,5 hPa 0,0 l/m 15,5 km/h (3 Bft) NO 50 0 min 0 W/m 1,5 C -1,7 C 15,5 km/h (3 Bft)
12.12.2009 05:04 4,6 C 80 % 1028,5 hPa 0,0 l/m 13,1 km/h (3 Bft) NO 35 0 min 0 W/m 1,5 C -0,4 C 13,1 km/h (3 Bft)
12.12.2009 05:09 4,6 C 80 % 1028,5 hPa 0,0 l/m 8,7 km/h (2 Bft) O-NO 60 0 min 0 W/m 1,5 C 2,6 C 8,7 km/h (2 Bft)
12.12.2009 05:14 4,6 C 80 % 1028,5 hPa 0,0 l/m 13,8 km/h (3 Bft) O-NO 60 0 min 0 W/m 1,5 C -0,8 C 13,8 km/h (3 Bft)
12.12.2009 05:19 4,6 C 80 % 1028,5 hPa 0,0 l/m 13,8 km/h (3 Bft) NO 40 0 min 0 W/m 1,5 C -0,8 C 13,8 km/h (3 Bft)
12.12.2009 05:24 4,7 C 80 % 1028,5 hPa 0,0 l/m 9,5 km/h (2 Bft) NO 50 0 min 0 W/m 1,6 C 2,1 C 9,5 km/h (2 Bft)
12.12.2009 05:29 4,7 C 80 % 1028,5 hPa 0,0 l/m 10,1 km/h (2 Bft) NO 45 0 min 0 W/m 1,6 C 1,7 C 10,1 km/h (2 Bft)
12.12.2009 05:34 4,6 C 79 % 1028,5 hPa 0,0 l/m 15,1 km/h (3 Bft) NO 45 0 min 0 W/m 1,3 C -1,5 C 15,1 km/h (3 Bft)
12.12.2009 05:39 4,5 C 79 % 1028,5 hPa 0,0 l/m 14,0 km/h (3 Bft) NO 45 0 min 0 W/m 1,2 C -1,0 C 14,0 km/h (3 Bft)
12.12.2009 05:44 4,5 C 79 % 1028,5 hPa 0,0 l/m 12,4 km/h (2 Bft) NO 55 0 min 0 W/m 1,2 C -0,1 C 12,4 km/h (2 Bft)
12.12.2009 05:49 4,4 C 79 % 1028,5 hPa 0,0 l/m 18,0 km/h (3 Bft) NO 55 0 min 0 W/m 1,1 C -3,1 C 18,0 km/h (3 Bft)
12.12.2009 05:54 4,5 C 79 % 1028,5 hPa 0,0 l/m 18,8 km/h (3 Bft) NO 55 0 min 0 W/m 1,2 C -3,3 C 18,8 km/h (3 Bft)
12.12.2009 05:59 4,4 C 79 % 1028,5 hPa 0,0 l/m 12,5 km/h (2 Bft) NO 45 0 min 0 W/m 1,1 C -0,2 C 12,5 km/h (2 Bft)
12.12.2009 06:04 4,5 C 79 % 1028,5 hPa 0,0 l/m 15,0 km/h (3 Bft) NO 55 0 min 0 W/m 1,2 C -1,5 C 15,0 km/h (3 Bft)
12.12.2009 06:09 4,4 C 79 % 1028,5 hPa 0,0 l/m 11,8 km/h (2 Bft) NO 45 0 min 0 W/m 1,1 C 0,2 C 11,8 km/h (2 Bft)
12.12.2009 06:14 4,4 C 79 % 1028,5 hPa 0,0 l/m 17,6 km/h (3 Bft) NO 40 0 min 0 W/m 1,1 C -2,9 C 17,6 km/h (3 Bft)
12.12.2009 06:19 4,4 C 79 % 1028,5 hPa 0,0 l/m 14,3 km/h (3 Bft) NO 35 0 min 0 W/m 1,1 C -1,3 C 14,3 km/h (3 Bft)
12.12.2009 06:24 4,4 C 79 % 1028,5 hPa 0,0 l/m 13,5 km/h (3 Bft) NO 40 0 min 0 W/m 1,1 C -0,8 C 13,5 km/h (3 Bft)
12.12.2009 06:29 4,4 C 79 % 1028,5 hPa 0,0 l/m 10,2 km/h (2 Bft) NO 50 0 min 0 W/m 1,1 C 1,3 C 10,2 km/h (2 Bft)
12.12.2009 06:34 4,4 C 79 % 1028,5 hPa 0,0 l/m 18,0 km/h (3 Bft) NO 40 0 min 0 W/m 1,1 C -3,1 C 18,0 km/h (3 Bft)
12.12.2009 06:39 4,4 C 78 % 1028,5 hPa 0,0 l/m 13,8 km/h (3 Bft) NO 50 0 min 0 W/m 0,9 C -1,0 C 13,8 km/h (3 Bft)
12.12.2009 06:44 4,4 C 79 % 1028,5 hPa 0,0 l/m 13,3 km/h (3 Bft) NO 50 0 min 0 W/m 1,1 C -0,7 C 13,3 km/h (3 Bft)
12.12.2009 06:49 4,4 C 79 % 1028,5 hPa 0,0 l/m 9,8 km/h (2 Bft) O-NO 60 0 min 0 W/m 1,1 C 1,6 C 9,8 km/h (2 Bft)
12.12.2009 06:54 4,5 C 79 % 1028,5 hPa 0,0 l/m 7,4 km/h (2 Bft) NO 50 0 min 0 W/m 1,2 C 3,6 C 7,4 km/h (2 Bft)
12.12.2009 06:59 4,5 C 79 % 1028,5 hPa 0,0 l/m 10,4 km/h (2 Bft) NO 35 0 min 0 W/m 1,2 C 1,2 C 10,4 km/h (2 Bft)
12.12.2009 07:04 4,5 C 79 % 1028,5 hPa 0,0 l/m 11,2 km/h (2 Bft) O-NO 60 0 min 0 W/m 1,2 C 0,7 C 11,2 km/h (2 Bft)
12.12.2009 07:09 4,5 C 79 % 1028,5 hPa 0,0 l/m 6,1 km/h (2 Bft) NO 35 0 min 0 W/m 1,2 C 4,5 C 6,1 km/h (2 Bft)
12.12.2009 07:13 4,6 C 79 % 1028,5 hPa 0,0 l/m 10,9 km/h (2 Bft) NO 45 0 min 0 W/m 1,3 C 1,0 C 10,9 km/h (2 Bft)
12.12.2009 07:19 4,5 C 79 % 1028,5 hPa 0,0 l/m 7,9 km/h (2 Bft) NO 50 0 min 0 W/m 1,2 C 3,2 C 7,9 km/h (2 Bft)
12.12.2009 07:24 4,6 C 79 % 1028,5 hPa 0,0 l/m 10,1 km/h (2 Bft) NO 35 0 min 0 W/m 1,3 C 1,6 C 10,1 km/h (2 Bft)
12.12.2009 07:29 4,6 C 79 % 1028,5 hPa 0,0 l/m 10,7 km/h (2 Bft) NO 35 0 min 0 W/m 1,3 C 1,1 C 10,7 km/h (2 Bft)
12.12.2009 07:34 4,5 C 79 % 1028,5 hPa 0,0 l/m 11,7 km/h (2 Bft) NO 55 0 min 0 W/m 1,2 C 0,4 C 11,7 km/h (2 Bft)
12.12.2009 07:39 4,5 C 79 % 1028,5 hPa 0,0 l/m 9,0 km/h (2 Bft) NO 40 0 min 0 W/m 1,2 C 2,3 C 9,0 km/h (2 Bft)
12.12.2009 07:44 4,5 C 79 % 1028,5 hPa 0,0 l/m 11,7 km/h (2 Bft) NO 40 0 min 0 W/m 1,2 C 0,4 C 11,7 km/h (2 Bft)
12.12.2009 07:49 4,5 C 79 % 1028,5 hPa 0,0 l/m 3,6 km/h (1 Bft) NO 40 0 min 0 W/m 1,2 C 4,5 C 3,6 km/h (1 Bft)
12.12.2009 07:54 4,4 C 79 % 1028,5 hPa 0,0 l/m 7,2 km/h (2 Bft) NO 35 0 min 0 W/m 1,1 C 3,7 C 7,2 km/h (2 Bft)
12.12.2009 07:59 4,4 C 79 % 1028,5 hPa 0,0 l/m 9,9 km/h (2 Bft) NO 50 0 min 0 W/m 1,1 C 1,5 C 9,9 km/h (2 Bft)
12.12.2009 08:04 4,4 C 79 % 1028,5 hPa 0,0 l/m 12,0 km/h (2 Bft) NO 55 0 min 0 W/m 1,1 C 0,1 C 12,0 km/h (2 Bft)
12.12.2009 08:09 4,4 C 79 % 1028,5 hPa 0,0 l/m 11,8 km/h (2 Bft) NO 50 0 min 0 W/m 1,1 C 0,2 C 11,8 km/h (2 Bft)
12.12.2009 08:14 4,5 C 79 % 1028,5 hPa 0,0 l/m 22,7 km/h (4 Bft) NO 45 0 min 0 W/m 1,2 C -4,8 C 22,7 km/h (4 Bft)
12.12.2009 08:19 4,5 C 79 % 1028,5 hPa 0,0 l/m 9,8 km/h (2 Bft) NO 45 0 min 0 W/m 1,2 C 1,7 C 9,8 km/h (2 Bft)
12.12.2009 08:24 4,5 C 79 % 1028,5 hPa 0,0 l/m 12,2 km/h (2 Bft) N-NO 30 0 min 0 W/m 1,2 C 0,1 C 12,2 km/h (2 Bft)
12.12.2009 08:29 4,4 C 79 % 1028,5 hPa 0,0 l/m 17,1 km/h (3 Bft) NO 35 0 min 0 W/m 1,1 C -2,7 C 17,1 km/h (3 Bft)
12.12.2009 08:34 4,5 C 80 % 1028,5 hPa 0,0 l/m 12,6 km/h (3 Bft) N-NO 30 0 min 0 W/m 1,4 C -0,2 C 12,6 km/h (3 Bft)
12.12.2009 08:39 4,5 C 80 % 1028,5 hPa 0,0 l/m 10,1 km/h (2 Bft) NO 40 0 min 0 W/m 1,4 C 1,4 C 10,1 km/h (2 Bft)
12.12.2009 08:44 4,4 C 80 % 1028,5 hPa 0,0 l/m 13,3 km/h (3 Bft) NO 45 0 min 0 W/m 1,3 C -0,7 C 13,3 km/h (3 Bft)
12.12.2009 08:49 4,5 C 80 % 1028,5 hPa 0,0 l/m 13,3 km/h (3 Bft) NO 40 0 min 0 W/m 1,4 C -0,6 C 13,3 km/h (3 Bft)
12.12.2009 08:54 4,4 C 80 % 1028,5 hPa 0,0 l/m 11,8 km/h (2 Bft) NO 40 0 min 0 W/m 1,3 C 0,2 C 11,8 km/h (2 Bft)
12.12.2009 08:58 4,4 C 81 % 1028,5 hPa 0,0 l/m 10,0 km/h (2 Bft) NO 40 0 min 0 W/m 1,4 C 1,4 C 10,0 km/h (2 Bft)
12.12.2009 09:04 4,4 C 81 % 1028,5 hPa 0,0 l/m 15,3 km/h (3 Bft) N-NO 25 0 min 0 W/m 1,4 C -1,8 C 15,3 km/h (3 Bft)
12.12.2009 09:09 4,4 C 81 % 1028,5 hPa 0,0 l/m 15,1 km/h (3 Bft) NO 45 0 min 0 W/m 1,4 C -1,7 C 15,1 km/h (3 Bft)
12.12.2009 09:14 4,4 C 81 % 1028,5 hPa 0,0 l/m 10,0 km/h (2 Bft) NO 45 0 min 0 W/m 1,4 C 1,4 C 10,0 km/h (2 Bft)
12.12.2009 09:19 4,3 C 81 % 1028,5 hPa 0,0 l/m 16,5 km/h (3 Bft) NO 45 0 min 0 W/m 1,3 C -2,5 C 16,5 km/h (3 Bft)
12.12.2009 09:24 4,3 C 81 % 1028,5 hPa 0,0 l/m 14,1 km/h (3 Bft) NO 45 0 min 0 W/m 1,3 C -1,3 C 14,1 km/h (3 Bft)
12.12.2009 09:29 4,3 C 81 % 1028,5 hPa 0,0 l/m 15,5 km/h (3 Bft) NO 45 0 min 0 W/m 1,3 C -2,0 C 15,5 km/h (3 Bft)
12.12.2009 09:34 4,3 C 81 % 1028,5 hPa 0,0 l/m 18,0 km/h (3 Bft) NO 45 0 min 0 W/m 1,3 C -3,2 C 18,0 km/h (3 Bft)
12.12.2009 09:39 4,4 C 82 % 1028,5 hPa 0,0 l/m 15,1 km/h (3 Bft) NO 50 0 min 0 W/m 1,6 C -1,7 C 15,1 km/h (3 Bft)
12.12.2009 09:44 4,3 C 81 % 1028,5 hPa 0,0 l/m 15,2 km/h (3 Bft) NO 45 0 min 0 W/m 1,3 C -1,9 C 15,2 km/h (3 Bft)
12.12.2009 09:49 4,3 C 81 % 1028,5 hPa 0,0 l/m 11,5 km/h (2 Bft) NO 50 0 min 0 W/m 1,3 C 0,3 C 11,5 km/h (2 Bft)
12.12.2009 09:54 4,3 C 81 % 1028,5 hPa 0,0 l/m 6,8 km/h (2 Bft) NO 35 0 min 0 W/m 1,3 C 3,9 C 6,8 km/h (2 Bft)
12.12.2009 09:59 4,3 C 82 % 1028,5 hPa 0,0 l/m 14,6 km/h (3 Bft) NO 55 0 min 0 W/m 1,5 C -1,6 C 14,6 km/h (3 Bft)
12.12.2009 10:04 4,4 C 81 % 1028,5 hPa 0,0 l/m 14,6 km/h (3 Bft) NO 55 0 min 0 W/m 1,4 C -1,4 C 14,6 km/h (3 Bft)
12.12.2009 10:09 4,5 C 81 % 1028,5 hPa 0,0 l/m 13,0 km/h (3 Bft) NO 35 0 min 0 W/m 1,5 C -0,4 C 13,0 km/h (3 Bft)
12.12.2009 10:14 4,5 C 81 % 1028,5 hPa 0,0 l/m 15,0 km/h (3 Bft) NO 50 0 min 0 W/m 1,5 C -1,5 C 15,0 km/h (3 Bft)
12.12.2009 10:19 4,6 C 81 % 1028,5 hPa 0,0 l/m 15,6 km/h (3 Bft) NO 35 0 min 0 W/m 1,6 C -1,7 C 15,6 km/h (3 Bft)
12.12.2009 10:24 4,6 C 82 % 1028,5 hPa 0,0 l/m 12,3 km/h (2 Bft) NO 40 0 min 0 W/m 1,8 C 0,1 C 12,3 km/h (2 Bft)
12.12.2009 10:29 4,7 C 82 % 1028,5 hPa 0,0 l/m 10,1 km/h (2 Bft) NO 40 0 min 0 W/m 1,9 C 1,7 C 10,1 km/h (2 Bft)
12.12.2009 10:34 4,7 C 81 % 1029,5 hPa 0,0 l/m 10,1 km/h (2 Bft) NO 35 0 min 0 W/m 1,7 C 1,7 C 10,1 km/h (2 Bft)
12.12.2009 10:39 4,8 C 81 % 1029,5 hPa 0,0 l/m 11,5 km/h (2 Bft) NO 50 0 min 0 W/m 1,8 C 0,8 C 11,5 km/h (2 Bft)
12.12.2009 10:44 4,8 C 81 % 1029,5 hPa 0,0 l/m 16,0 km/h (3 Bft) NO 40 0 min 0 W/m 1,8 C -1,7 C 16,0 km/h (3 Bft)
12.12.2009 10:49 4,8 C 81 % 1029,5 hPa 0,0 l/m 12,2 km/h (2 Bft) NO 45 0 min 0 W/m 1,8 C 0,4 C 12,2 km/h (2 Bft)
12.12.2009 10:54 4,7 C 81 % 1029,5 hPa 0,0 l/m 11,6 km/h (2 Bft) NO 50 0 min 0 W/m 1,7 C 0,7 C 11,6 km/h (2 Bft)
12.12.2009 10:59 4,7 C 81 % 1029,5 hPa 0,0 l/m 15,1 km/h (3 Bft) NO 50 0 min 0 W/m 1,7 C -1,3 C 15,1 km/h (3 Bft)
12.12.2009 11:04 4,6 C 82 % 1028,5 hPa 0,0 l/m 16,3 km/h (3 Bft) NO 40 0 min 0 W/m 1,8 C -2,1 C 16,3 km/h (3 Bft)
12.12.2009 11:09 4,7 C 82 % 1028,5 hPa 0,0 l/m 8,0 km/h (2 Bft) NO 40 0 min 0 W/m 1,9 C 3,3 C 8,0 km/h (2 Bft)
12.12.2009 11:14 4,7 C 82 % 1028,5 hPa 0,0 l/m 11,3 km/h (2 Bft) N-NO 30 0 min 0 W/m 1,9 C 0,9 C 11,3 km/h (2 Bft)
12.12.2009 11:19 4,7 C 82 % 1028,5 hPa 0,0 l/m 11,5 km/h (2 Bft) NO 50 0 min 0 W/m 1,9 C 0,7 C 11,5 km/h (2 Bft)
12.12.2009 11:24 4,9 C 82 % 1028,5 hPa 0,0 l/m 7,1 km/h (2 Bft) NO 35 0 min 0 W/m 2,1 C 4,3 C 7,1 km/h (2 Bft)
12.12.2009 11:29 5,1 C 81 % 1028,5 hPa 0,0 l/m 15,7 km/h (3 Bft) NO 50 0 min 0 W/m 2,1 C -1,2 C 15,7 km/h (3 Bft)
12.12.2009 11:34 5,2 C 81 % 1028,5 hPa 0,0 l/m 11,3 km/h (2 Bft) NO 40 0 min 0 W/m 2,2 C 1,4 C 11,3 km/h (2 Bft)
12.12.2009 11:39 5,2 C 81 % 1028,5 hPa 0,0 l/m 16,6 km/h (3 Bft) NO 35 0 min 0 W/m 2,2 C -1,5 C 16,6 km/h (3 Bft)
12.12.2009 11:44 5,4 C 81 % 1028,5 hPa 0,0 l/m 10,1 km/h (2 Bft) NO 45 0 min 0 W/m 2,4 C 2,4 C 10,1 km/h (2 Bft)
12.12.2009 11:49 5,6 C 80 % 1028,5 hPa 0,0 l/m 7,6 km/h (2 Bft) NO 45 0 min 0 W/m 2,4 C 4,6 C 7,6 km/h (2 Bft)
12.12.2009 11:54 5,7 C 80 % 1028,5 hPa 0,0 l/m 12,8 km/h (3 Bft) N-NO 25 0 min 0 W/m 2,5 C 1,1 C 12,8 km/h (3 Bft)
12.12.2009 11:59 5,9 C 79 % 1028,5 hPa 0,0 l/m 15,4 km/h (3 Bft) NO 50 0 min 0 W/m 2,5 C -0,0 C 15,4 km/h (3 Bft)
12.12.2009 12:04 6,0 C 78 % 1028,5 hPa 0,0 l/m 16,6 km/h (3 Bft) NO 55 0 min 0 W/m 2,5 C -0,5 C 16,6 km/h (3 Bft)
12.12.2009 12:09 6,0 C 78 % 1028,5 hPa 0,0 l/m 13,9 km/h (3 Bft) NO 50 0 min 0 W/m 2,5 C 0,8 C 13,9 km/h (3 Bft)
12.12.2009 12:14 6,1 C 77 % 1028,5 hPa 0,0 l/m 13,8 km/h (3 Bft) NO 45 0 min 0 W/m 2,4 C 1,0 C 13,8 km/h (3 Bft)
12.12.2009 12:19 6,2 C 77 % 1028,5 hPa 0,0 l/m 12,6 km/h (3 Bft) NO 40 0 min 0 W/m 2,5 C 1,8 C 12,6 km/h (3 Bft)
12.12.2009 12:24 6,2 C 76 % 1028,5 hPa 0,0 l/m 15,6 km/h (3 Bft) NO 35 0 min 0 W/m 2,3 C 0,2 C 15,6 km/h (3 Bft)
12.12.2009 12:29 6,2 C 76 % 1028,5 hPa 0,0 l/m 14,1 km/h (3 Bft) NO 50 0 min 0 W/m 2,3 C 1,0 C 14,1 km/h (3 Bft)
12.12.2009 12:34 6,0 C 76 % 1028,5 hPa 0,0 l/m 11,9 km/h (2 Bft) NO 40 0 min 0 W/m 2,1 C 2,0 C 11,9 km/h (2 Bft)
12.12.2009 12:39 5,7 C 76 % 1028,5 hPa 0,0 l/m 13,5 km/h (3 Bft) NO 45 0 min 0 W/m 1,8 C 0,7 C 13,5 km/h (3 Bft)
12.12.2009 12:44 5,6 C 77 % 1028,5 hPa 0,0 l/m 15,1 km/h (3 Bft) NO 55 0 min 0 W/m 1,9 C -0,2 C 15,1 km/h (3 Bft)
12.12.2009 12:49 5,6 C 77 % 1028,5 hPa 0,0 l/m 13,6 km/h (3 Bft) O-NO 60 0 min 0 W/m 1,9 C 0,5 C 13,6 km/h (3 Bft)
12.12.2009 12:54 5,3 C 76 % 1028,5 hPa 0,0 l/m 17,8 km/h (3 Bft) NO 45 0 min 0 W/m 1,4 C -1,9 C 17,8 km/h (3 Bft)
12.12.2009 12:59 5,2 C 76 % 1028,5 hPa 0,0 l/m 11,8 km/h (2 Bft) NO 50 0 min 0 W/m 1,3 C 1,1 C 11,8 km/h (2 Bft)
12.12.2009 13:04 5,3 C 76 % 1028,5 hPa 0,0 l/m 14,3 km/h (3 Bft) NO 50 0 min 0 W/m 1,4 C -0,2 C 14,3 km/h (3 Bft)
12.12.2009 13:09 5,2 C 73 % 1028,5 hPa 0,0 l/m 14,3 km/h (3 Bft) NO 50 0 min 0 W/m 0,8 C -0,3 C 14,3 km/h (3 Bft)
12.12.2009 13:14 5,2 C 73 % 1028,5 hPa 0,0 l/m 14,5 km/h (3 Bft) NO 55 0 min 0 W/m 0,8 C -0,4 C 14,5 km/h (3 Bft)
12.12.2009 13:19 5,1 C 73 % 1028,5 hPa 0,0 l/m 12,0 km/h (2 Bft) NO 50 0 min 0 W/m 0,7 C 0,9 C 12,0 km/h (2 Bft)
12.12.2009 13:24 5,2 C 73 % 1028,5 hPa 0,0 l/m 14,3 km/h (3 Bft) NO 55 0 min 0 W/m 0,8 C -0,3 C 14,3 km/h (3 Bft)
12.12.2009 13:29 5,2 C 73 % 1027,5 hPa 0,0 l/m 19,8 km/h (3 Bft) NO 50 0 min 0 W/m 0,8 C -2,8 C 19,8 km/h (3 Bft)
12.12.2009 13:34 5,4 C 74 % 1027,5 hPa 0,0 l/m 14,1 km/h (3 Bft) NO 50 0 min 0 W/m 1,1 C 0,0 C 14,1 km/h (3 Bft)
12.12.2009 13:39 5,4 C 73 % 1027,5 hPa 0,0 l/m 15,7 km/h (3 Bft) NO 45 0 min 0 W/m 1,0 C -0,8 C 15,7 km/h (3 Bft)
12.12.2009 13:44 5,4 C 72 % 1027,5 hPa 0,0 l/m 15,8 km/h (3 Bft) NO 45 0 min 0 W/m 0,8 C -0,8 C 15,8 km/h (3 Bft)
12.12.2009 13:49 5,4 C 72 % 1027,5 hPa 0,0 l/m 16,8 km/h (3 Bft) O-NO 65 0 min 0 W/m 0,8 C -1,3 C 16,8 km/h (3 Bft)
12.12.2009 13:54 5,5 C 72 % 1027,5 hPa 0,0 l/m 23,1 km/h (4 Bft) NO 55 0 min 0 W/m 0,9 C -3,6 C 23,1 km/h (4 Bft)
12.12.2009 13:59 5,5 C 70 % 1027,5 hPa 0,0 l/m 20,3 km/h (4 Bft) NO 45 0 min 0 W/m 0,5 C -2,6 C 20,3 km/h (4 Bft)
12.12.2009 14:04 5,4 C 71 % 1027,5 hPa 0,0 l/m 11,3 km/h (2 Bft) NO 50 0 min 0 W/m 0,6 C 1,7 C 11,3 km/h (2 Bft)
12.12.2009 14:09 5,2 C 72 % 1027,5 hPa 0,0 l/m 12,7 km/h (3 Bft) NO 55 0 min 0 W/m 0,6 C 0,6 C 12,7 km/h (3 Bft)
12.12.2009 14:14 5,1 C 72 % 1027,5 hPa 0,0 l/m 14,9 km/h (3 Bft) NO 50 0 min 0 W/m 0,5 C -0,8 C 14,9 km/h (3 Bft)
12.12.2009 14:19 4,9 C 72 % 1027,5 hPa 0,0 l/m 12,3 km/h (2 Bft) O-NO 60 0 min 0 W/m 0,3 C 0,5 C 12,3 km/h (2 Bft)
12.12.2009 14:24 4,9 C 72 % 1027,5 hPa 0,0 l/m 13,9 km/h (3 Bft) O-NO 65 0 min 0 W/m 0,3 C -0,5 C 13,9 km/h (3 Bft)
12.12.2009 14:29 4,7 C 72 % 1027,5 hPa 0,0 l/m 10,6 km/h (2 Bft) NO 45 0 min 0 W/m 0,1 C 1,3 C 10,6 km/h (2 Bft)
12.12.2009 14:34 4,7 C 72 % 1027,5 hPa 0,0 l/m 12,5 km/h (2 Bft) NO 55 0 min 0 W/m 0,1 C 0,1 C 12,5 km/h (2 Bft)
12.12.2009 14:39 4,7 C 72 % 1027,5 hPa 0,0 l/m 15,8 km/h (3 Bft) NO 45 0 min 0 W/m 0,1 C -1,7 C 15,8 km/h (3 Bft)
12.12.2009 14:44 4,6 C 72 % 1027,5 hPa 0,0 l/m 13,8 km/h (3 Bft) N-NO 30 0 min 0 W/m -0,0 C -0,8 C 13,8 km/h (3 Bft)
12.12.2009 14:49 4,5 C 72 % 1027,5 hPa 0,0 l/m 17,7 km/h (3 Bft) NO 55 0 min 0 W/m -0,1 C -2,8 C 17,7 km/h (3 Bft)
12.12.2009 14:54 4,5 C 73 % 1027,5 hPa 0,0 l/m 6,8 km/h (2 Bft) NO 50 0 min 0 W/m 0,1 C 4,2 C 6,8 km/h (2 Bft)
12.12.2009 14:59 4,5 C 72 % 1027,5 hPa 0,0 l/m 14,1 km/h (3 Bft) NO 55 0 min 0 W/m -0,1 C -1,0 C 14,1 km/h (3 Bft)
12.12.2009 15:04 4,4 C 72 % 1027,5 hPa 0,0 l/m 18,6 km/h (3 Bft) NO 45 0 min 0 W/m -0,2 C -3,4 C 18,6 km/h (3 Bft)
12.12.2009 15:09 4,3 C 72 % 1027,5 hPa 0,0 l/m 21,9 km/h (4 Bft) NO 50 0 min 0 W/m -0,3 C -4,8 C 21,9 km/h (4 Bft)
12.12.2009 15:14 4,2 C 71 % 1027,5 hPa 0,0 l/m 20,0 km/h (4 Bft) NO 50 0 min 0 W/m -0,6 C -4,2 C 20,0 km/h (4 Bft)
12.12.2009 15:19 4,1 C 72 % 1027,5 hPa 0,0 l/m 12,3 km/h (2 Bft) O-NO 60 0 min 0 W/m -0,5 C -0,5 C 12,3 km/h (2 Bft)
12.12.2009 15:24 4,1 C 73 % 1028,5 hPa 0,0 l/m 13,5 km/h (3 Bft) NO 50 0 min 0 W/m -0,3 C -1,2 C 13,5 km/h (3 Bft)
12.12.2009 15:29 4,1 C 73 % 1028,5 hPa 0,0 l/m 20,0 km/h (4 Bft) NO 50 0 min 0 W/m -0,3 C -4,3 C 20,0 km/h (4 Bft)
12.12.2009 15:34 4,0 C 73 % 1028,5 hPa 0,0 l/m 12,9 km/h (3 Bft) O-NO 60 0 min 0 W/m -0,4 C -1,0 C 12,9 km/h (3 Bft)
12.12.2009 15:39 3,9 C 74 % 1028,5 hPa 0,0 l/m 11,5 km/h (2 Bft) NO 50 0 min 0 W/m -0,3 C -0,2 C 11,5 km/h (2 Bft)
12.12.2009 15:44 3,9 C 73 % 1028,5 hPa 0,0 l/m 8,6 km/h (2 Bft) NO 55 0 min 0 W/m -0,5 C 1,9 C 8,6 km/h (2 Bft)
12.12.2009 15:49 3,8 C 73 % 1028,5 hPa 0,0 l/m 13,6 km/h (3 Bft) NO 45 0 min 0 W/m -0,6 C -1,6 C 13,6 km/h (3 Bft)
12.12.2009 15:54 3,8 C 73 % 1028,5 hPa 0,0 l/m 16,4 km/h (3 Bft) NO 40 0 min 0 W/m -0,6 C -3,1 C 16,4 km/h (3 Bft)
12.12.2009 15:59 3,8 C 74 % 1028,5 hPa 0,0 l/m 11,7 km/h (2 Bft) O-NO 60 0 min 0 W/m -0,4 C -0,4 C 11,7 km/h (2 Bft)
12.12.2009 16:04 3,8 C 74 % 1028,5 hPa 0,0 l/m 10,3 km/h (2 Bft) NO 45 0 min 0 W/m -0,4 C 0,5 C 10,3 km/h (2 Bft)
12.12.2009 16:09 3,7 C 73 % 1027,5 hPa 0,0 l/m 12,6 km/h (3 Bft) NO 50 0 min 0 W/m -0,7 C -1,1 C 12,6 km/h (3 Bft)
12.12.2009 16:14 3,7 C 73 % 1028,5 hPa 0,0 l/m 8,5 km/h (2 Bft) O-NO 60 0 min 0 W/m -0,7 C 1,8 C 8,5 km/h (2 Bft)
12.12.2009 16:19 3,8 C 72 % 1027,5 hPa 0,0 l/m 17,4 km/h (3 Bft) NO 45 0 min 0 W/m -0,8 C -3,6 C 17,4 km/h (3 Bft)
12.12.2009 16:24 3,9 C 72 % 1027,5 hPa 0,0 l/m 13,5 km/h (3 Bft) O-NO 60 0 min 0 W/m -0,7 C -1,4 C 13,5 km/h (3 Bft)
12.12.2009 16:29 4,0 C 72 % 1027,5 hPa 0,0 l/m 23,2 km/h (4 Bft) NO 50 0 min 0 W/m -0,6 C -5,7 C 23,2 km/h (4 Bft)
12.12.2009 16:34 4,1 C 72 % 1027,5 hPa 0,0 l/m 13,5 km/h (3 Bft) O-NO 60 0 min 0 W/m -0,5 C -1,2 C 13,5 km/h (3 Bft)
12.12.2009 16:39 4,3 C 72 % 1027,5 hPa 0,0 l/m 12,2 km/h (2 Bft) NO 50 0 min 0 W/m -0,3 C -0,2 C 12,2 km/h (2 Bft)
12.12.2009 16:44 4,3 C 72 % 1028,5 hPa 0,0 l/m 7,2 km/h (2 Bft) NO 50 0 min 0 W/m -0,3 C 3,6 C 7,2 km/h (2 Bft)
12.12.2009 16:49 4,3 C 72 % 1028,5 hPa 0,0 l/m 8,3 km/h (2 Bft) O-NO 65 0 min 0 W/m -0,3 C 2,6 C 8,3 km/h (2 Bft)
12.12.2009 16:54 4,4 C 71 % 1028,5 hPa 0,0 l/m 13,8 km/h (3 Bft) NO 40 0 min 0 W/m -0,4 C -1,0 C 13,8 km/h (3 Bft)
12.12.2009 16:59 4,4 C 72 % 1028,5 hPa 0,0 l/m 9,2 km/h (2 Bft) O-NO 70 0 min 0 W/m -0,2 C 2,0 C 9,2 km/h (2 Bft)
12.12.2009 17:04 4,4 C 72 % 1028,5 hPa 0,0 l/m 5,5 km/h (2 Bft) NO 50 0 min 0 W/m -0,2 C 4,4 C 5,5 km/h (2 Bft)
12.12.2009 17:09 4,5 C 72 % 1028,5 hPa 0,0 l/m 2,1 km/h (1 Bft) NO 45 0 min 0 W/m -0,1 C 4,5 C 2,1 km/h (1 Bft)
12.12.2009 17:14 4,5 C 72 % 1028,5 hPa 0,0 l/m 13,1 km/h (3 Bft) NO 50 0 min 0 W/m -0,1 C -0,5 C 13,1 km/h (3 Bft)
12.12.2009 17:19 4,4 C 72 % 1028,5 hPa 0,0 l/m 6,5 km/h (2 Bft) O-NO 60 0 min 0 W/m -0,2 C 4,3 C 6,5 km/h (2 Bft)
12.12.2009 17:24 4,3 C 71 % 1028,5 hPa 0,0 l/m 12,5 km/h (2 Bft) NO 45 0 min 0 W/m -0,5 C -0,4 C 12,5 km/h (2 Bft)
12.12.2009 17:29 4,3 C 71 % 1028,5 hPa 0,0 l/m 11,9 km/h (2 Bft) NO 50 0 min 0 W/m -0,5 C 0,0 C 11,9 km/h (2 Bft)
12.12.2009 17:34 4,3 C 72 % 1028,5 hPa 0,0 l/m 11,3 km/h (2 Bft) N-NO 25 0 min 0 W/m -0,3 C 0,4 C 11,3 km/h (2 Bft)
12.12.2009 17:39 4,3 C 72 % 1028,5 hPa 0,0 l/m 13,4 km/h (3 Bft) O-NO 60 0 min 0 W/m -0,3 C -0,9 C 13,4 km/h (3 Bft)
12.12.2009 17:44 4,2 C 72 % 1028,5 hPa 0,0 l/m 10,8 km/h (2 Bft) NO 55 0 min 0 W/m -0,4 C 0,6 C 10,8 km/h (2 Bft)
12.12.2009 17:49 4,3 C 72 % 1028,5 hPa 0,0 l/m 1,8 km/h (1 Bft) NO 45 0 min 0 W/m -0,3 C 4,3 C 1,8 km/h (1 Bft)
12.12.2009 17:54 4,3 C 72 % 1028,5 hPa 0,0 l/m 16,1 km/h (3 Bft) NO 55 0 min 0 W/m -0,3 C -2,3 C 16,1 km/h (3 Bft)
12.12.2009 17:59 4,3 C 72 % 1028,5 hPa 0,0 l/m 10,5 km/h (2 Bft) NO 40 0 min 0 W/m -0,3 C 0,9 C 10,5 km/h (2 Bft)
12.12.2009 18:04 4,3 C 72 % 1028,5 hPa 0,0 l/m 16,8 km/h (3 Bft) NO 55 0 min 0 W/m -0,3 C -2,7 C 16,8 km/h (3 Bft)
12.12.2009 18:09 4,3 C 72 % 1028,5 hPa 0,0 l/m 14,7 km/h (3 Bft) NO 40 0 min 0 W/m -0,3 C -1,6 C 14,7 km/h (3 Bft)
12.12.2009 18:14 4,3 C 72 % 1028,5 hPa 0,0 l/m 12,1 km/h (2 Bft) NO 45 0 min 0 W/m -0,3 C -0,1 C 12,1 km/h (2 Bft)
12.12.2009 18:19 4,4 C 72 % 1028,5 hPa 0,0 l/m 14,2 km/h (3 Bft) NO 45 0 min 0 W/m -0,2 C -1,2 C 14,2 km/h (3 Bft)
12.12.2009 18:24 4,4 C 72 % 1028,5 hPa 0,0 l/m 10,4 km/h (2 Bft) NO 50 0 min 0 W/m -0,2 C 1,1 C 10,4 km/h (2 Bft)
12.12.2009 18:29 4,4 C 72 % 1027,5 hPa 0,0 l/m 12,1 km/h (2 Bft) NO 50 0 min 0 W/m -0,2 C 0,0 C 12,1 km/h (2 Bft)
12.12.2009 18:34 4,4 C 72 % 1028,5 hPa 0,0 l/m 10,4 km/h (2 Bft) NO 45 0 min 0 W/m -0,2 C 1,1 C 10,4 km/h (2 Bft)
12.12.2009 18:39 4,4 C 72 % 1028,5 hPa 0,0 l/m 11,5 km/h (2 Bft) NO 45 0 min 0 W/m -0,2 C 0,4 C 11,5 km/h (2 Bft)
12.12.2009 18:44 4,4 C 72 % 1028,5 hPa 0,0 l/m 10,4 km/h (2 Bft) O-NO 60 0 min 0 W/m -0,2 C 1,1 C 10,4 km/h (2 Bft)
12.12.2009 18:49 4,4 C 72 % 1028,5 hPa 0,0 l/m 17,2 km/h (3 Bft) NO 55 0 min 0 W/m -0,2 C -2,7 C 17,2 km/h (3 Bft)
12.12.2009 18:54 4,4 C 72 % 1028,5 hPa 0,0 l/m 8,2 km/h (2 Bft) NO 55 0 min 0 W/m -0,2 C 2,8 C 8,2 km/h (2 Bft)
12.12.2009 18:59 4,3 C 72 % 1028,5 hPa 0,0 l/m 14,6 km/h (3 Bft) NO 45 0 min 0 W/m -0,3 C -1,6 C 14,6 km/h (3 Bft)
12.12.2009 19:04 4,4 C 73 % 1028,5 hPa 0,0 l/m 18,1 km/h (3 Bft) NO 40 0 min 0 W/m -0,0 C -3,1 C 18,1 km/h (3 Bft)
12.12.2009 19:09 4,4 C 73 % 1028,5 hPa 0,0 l/m 16,9 km/h (3 Bft) O-NO 60 0 min 0 W/m -0,0 C -2,6 C 16,9 km/h (3 Bft)
12.12.2009 19:14 4,5 C 73 % 1028,5 hPa 0,0 l/m 15,4 km/h (3 Bft) NO 50 0 min 0 W/m 0,1 C -1,7 C 15,4 km/h (3 Bft)
12.12.2009 19:19 4,5 C 73 % 1028,5 hPa 0,0 l/m 14,7 km/h (3 Bft) NO 40 0 min 0 W/m 0,1 C -1,4 C 14,7 km/h (3 Bft)
12.12.2009 19:24 4,6 C 73 % 1028,5 hPa 0,0 l/m 7,0 km/h (2 Bft) NO 35 0 min 0 W/m 0,2 C 4,1 C 7,0 km/h (2 Bft)
12.12.2009 19:29 4,7 C 73 % 1028,5 hPa 0,0 l/m 11,5 km/h (2 Bft) NO 45 0 min 0 W/m 0,3 C 0,7 C 11,5 km/h (2 Bft)
12.12.2009 19:34 4,6 C 72 % 1028,5 hPa 0,0 l/m 8,5 km/h (2 Bft) NO 50 0 min 0 W/m -0,0 C 2,8 C 8,5 km/h (2 Bft)
12.12.2009 19:39 4,6 C 73 % 1028,5 hPa 0,0 l/m 11,6 km/h (2 Bft) NO 50 0 min 0 W/m 0,2 C 0,5 C 11,6 km/h (2 Bft)
12.12.2009 19:44 4,6 C 73 % 1028,5 hPa 0,0 l/m 10,1 km/h (2 Bft) NO 50 0 min 0 W/m 0,2 C 1,6 C 10,1 km/h (2 Bft)
12.12.2009 19:49 4,6 C 73 % 1028,5 hPa 0,0 l/m 13,0 km/h (3 Bft) O-NO 60 0 min 0 W/m 0,2 C -0,3 C 13,0 km/h (3 Bft)
12.12.2009 19:54 4,7 C 73 % 1028,5 hPa 0,0 l/m 10,1 km/h (2 Bft) O-NO 65 0 min 0 W/m 0,3 C 1,7 C 10,1 km/h (2 Bft)
12.12.2009 19:59 4,7 C 73 % 1028,5 hPa 0,0 l/m 13,1 km/h (3 Bft) NO 50 0 min 0 W/m 0,3 C -0,2 C 13,1 km/h (3 Bft)
12.12.2009 20:04 4,7 C 73 % 1028,5 hPa 0,0 l/m 15,6 km/h (3 Bft) NO 40 0 min 0 W/m 0,3 C -1,6 C 15,6 km/h (3 Bft)
12.12.2009 20:09 4,7 C 73 % 1028,5 hPa 0,0 l/m 14,8 km/h (3 Bft) O-NO 65 0 min 0 W/m 0,3 C -1,2 C 14,8 km/h (3 Bft)
12.12.2009 20:14 4,8 C 73 % 1028,5 hPa 0,0 l/m 17,0 km/h (3 Bft) NO 50 0 min 0 W/m 0,4 C -2,1 C 17,0 km/h (3 Bft)
12.12.2009 20:19 4,9 C 74 % 1028,5 hPa 0,0 l/m 16,3 km/h (3 Bft) NO 55 0 min 0 W/m 0,7 C -1,7 C 16,3 km/h (3 Bft)
12.12.2009 20:24 4,9 C 73 % 1028,5 hPa 0,0 l/m 10,5 km/h (2 Bft) NO 45 0 min 0 W/m 0,5 C 1,6 C 10,5 km/h (2 Bft)
12.12.2009 20:29 4,9 C 73 % 1028,5 hPa 0,0 l/m 18,0 km/h (3 Bft) NO 55 0 min 0 W/m 0,5 C -2,5 C 18,0 km/h (3 Bft)
12.12.2009 20:34 4,9 C 74 % 1028,5 hPa 0,0 l/m 14,5 km/h (3 Bft) NO 50 0 min 0 W/m 0,7 C -0,8 C 14,5 km/h (3 Bft)
12.12.2009 20:39 4,9 C 73 % 1028,5 hPa 0,0 l/m 14,6 km/h (3 Bft) NO 50 0 min 0 W/m 0,5 C -0,8 C 14,6 km/h (3 Bft)
12.12.2009 20:44 4,9 C 73 % 1028,5 hPa 0,0 l/m 10,5 km/h (2 Bft) NO 35 0 min 0 W/m 0,5 C 1,6 C 10,5 km/h (2 Bft)
12.12.2009 20:49 4,9 C 73 % 1028,5 hPa 0,0 l/m 15,6 km/h (3 Bft) NO 50 0 min 0 W/m 0,5 C -1,3 C 15,6 km/h (3 Bft)
12.12.2009 20:54 4,9 C 73 % 1028,5 hPa 0,0 l/m 11,8 km/h (2 Bft) NO 35 0 min 0 W/m 0,5 C 0,8 C 11,8 km/h (2 Bft)
12.12.2009 20:59 4,9 C 73 % 1028,5 hPa 0,0 l/m 14,8 km/h (3 Bft) NO 55 0 min 0 W/m 0,5 C -0,9 C 14,8 km/h (3 Bft)
12.12.2009 21:04 4,9 C 73 % 1027,5 hPa 0,0 l/m 19,5 km/h (3 Bft) NO 35 0 min 0 W/m 0,5 C -3,1 C 19,5 km/h (3 Bft)
12.12.2009 21:09 4,9 C 73 % 1027,5 hPa 0,0 l/m 11,7 km/h (2 Bft) NO 45 0 min 0 W/m 0,5 C 0,8 C 11,7 km/h (2 Bft)
12.12.2009 21:14 4,8 C 73 % 1028,5 hPa 0,0 l/m 16,1 km/h (3 Bft) NO 40 0 min 0 W/m 0,4 C -1,7 C 16,1 km/h (3 Bft)
12.12.2009 21:19 4,9 C 73 % 1027,5 hPa 0,0 l/m 21,1 km/h (4 Bft) NO 50 0 min 0 W/m 0,5 C -3,7 C 21,1 km/h (4 Bft)
12.12.2009 21:24 4,9 C 73 % 1027,5 hPa 0,0 l/m 16,6 km/h (3 Bft) NO 50 0 min 0 W/m 0,5 C -1,8 C 16,6 km/h (3 Bft)
12.12.2009 21:29 4,8 C 72 % 1027,5 hPa 0,0 l/m 16,5 km/h (3 Bft) NO 50 0 min 0 W/m 0,2 C -1,9 C 16,5 km/h (3 Bft)
12.12.2009 21:34 4,7 C 72 % 1027,5 hPa 0,0 l/m 20,8 km/h (4 Bft) NO 40 0 min 0 W/m 0,1 C -3,9 C 20,8 km/h (4 Bft)
12.12.2009 21:39 4,7 C 72 % 1027,5 hPa 0,0 l/m 15,0 km/h (3 Bft) NO 40 0 min 0 W/m 0,1 C -1,3 C 15,0 km/h (3 Bft)
12.12.2009 21:44 4,6 C 72 % 1027,5 hPa 0,0 l/m 19,9 km/h (4 Bft) NO 45 0 min 0 W/m -0,0 C -3,6 C 19,9 km/h (4 Bft)
12.12.2009 21:49 4,6 C 71 % 1027,5 hPa 0,0 l/m 20,1 km/h (4 Bft) NO 55 0 min 0 W/m -0,2 C -3,7 C 20,1 km/h (4 Bft)
12.12.2009 21:54 4,5 C 71 % 1027,5 hPa 0,0 l/m 11,3 km/h (2 Bft) NO 55 0 min 0 W/m -0,3 C 0,6 C 11,3 km/h (2 Bft)
12.12.2009 21:59 4,5 C 71 % 1027,5 hPa 0,0 l/m 15,8 km/h (3 Bft) NO 45 0 min 0 W/m -0,3 C -1,9 C 15,8 km/h (3 Bft)
12.12.2009 22:04 4,5 C 71 % 1027,5 hPa 0,0 l/m 17,9 km/h (3 Bft) NO 45 0 min 0 W/m -0,3 C -2,9 C 17,9 km/h (3 Bft)
12.12.2009 22:09 4,5 C 71 % 1027,5 hPa 0,0 l/m 14,3 km/h (3 Bft) NO 50 0 min 0 W/m -0,3 C -1,2 C 14,3 km/h (3 Bft)
12.12.2009 22:14 4,5 C 71 % 1028,5 hPa 0,0 l/m 17,3 km/h (3 Bft) NO 35 0 min 0 W/m -0,3 C -2,7 C 17,3 km/h (3 Bft)
12.12.2009 22:19 4,6 C 71 % 1027,5 hPa 0,0 l/m 15,5 km/h (3 Bft) NO 45 0 min 0 W/m -0,2 C -1,7 C 15,5 km/h (3 Bft)
12.12.2009 22:24 4,4 C 72 % 1027,5 hPa 0,0 l/m 14,0 km/h (3 Bft) NO 55 0 min 0 W/m -0,2 C -1,1 C 14,0 km/h (3 Bft)
12.12.2009 22:29 4,3 C 72 % 1027,5 hPa 0,0 l/m 8,3 km/h (2 Bft) NO 50 0 min 0 W/m -0,3 C 2,6 C 8,3 km/h (2 Bft)
12.12.2009 22:34 4,2 C 72 % 1027,5 hPa 0,0 l/m 14,5 km/h (3 Bft) NO 55 0 min 0 W/m -0,4 C -1,6 C 14,5 km/h (3 Bft)
12.12.2009 22:39 4,0 C 73 % 1027,5 hPa 0,0 l/m 15,6 km/h (3 Bft) NO 50 0 min 0 W/m -0,4 C -2,4 C 15,6 km/h (3 Bft)
12.12.2009 22:44 3,9 C 73 % 1027,5 hPa 0,0 l/m 12,0 km/h (2 Bft) NO 55 0 min 0 W/m -0,5 C -0,5 C 12,0 km/h (2 Bft)
12.12.2009 22:49 3,8 C 74 % 1027,5 hPa 0,0 l/m 6,7 km/h (2 Bft) O-NO 60 0 min 0 W/m -0,4 C 3,5 C 6,7 km/h (2 Bft)
12.12.2009 22:54 3,7 C 73 % 1027,5 hPa 0,0 l/m 13,5 km/h (3 Bft) O-NO 60 0 min 0 W/m -0,7 C -1,7 C 13,5 km/h (3 Bft)
12.12.2009 22:59 3,7 C 73 % 1027,5 hPa 0,0 l/m 10,8 km/h (2 Bft) NO 50 0 min 0 W/m -0,7 C 0,1 C 10,8 km/h (2 Bft)
12.12.2009 23:04 3,7 C 73 % 1027,5 hPa 0,0 l/m 12,0 km/h (2 Bft) NO 45 0 min 0 W/m -0,7 C -0,7 C 12,0 km/h (2 Bft)
12.12.2009 23:09 3,6 C 74 % 1027,5 hPa 0,0 l/m 14,6 km/h (3 Bft) NO 40 0 min 0 W/m -0,6 C -2,4 C 14,6 km/h (3 Bft)
12.12.2009 23:14 3,6 C 74 % 1027,5 hPa 0,0 l/m 15,6 km/h (3 Bft) NO 50 0 min 0 W/m -0,6 C -2,9 C 15,6 km/h (3 Bft)
12.12.2009 23:19 3,6 C 74 % 1027,5 hPa 0,0 l/m 11,8 km/h (2 Bft) O-NO 65 0 min 0 W/m -0,6 C -0,7 C 11,8 km/h (2 Bft)
12.12.2009 23:24 3,5 C 74 % 1027,5 hPa 0,0 l/m 5,2 km/h (1 Bft) N-NO 15 0 min 0 W/m -0,7 C 3,5 C 5,2 km/h (1 Bft)
12.12.2009 23:29 3,5 C 74 % 1027,5 hPa 0,0 l/m 6,2 km/h (2 Bft) NO 35 0 min 0 W/m -0,7 C 3,5 C 6,2 km/h (2 Bft)
12.12.2009 23:34 3,5 C 74 % 1027,5 hPa 0,0 l/m 2,4 km/h (1 Bft) NO 55 0 min 0 W/m -0,7 C 3,5 C 2,4 km/h (1 Bft)
12.12.2009 23:39 3,5 C 74 % 1027,5 hPa 0,0 l/m 4,2 km/h (1 Bft) NO 35 0 min 0 W/m -0,7 C 3,5 C 4,2 km/h (1 Bft)
12.12.2009 23:44 3,5 C 75 % 1027,5 hPa 0,0 l/m 5,9 km/h (2 Bft) NO 50 0 min 0 W/m -0,5 C 3,5 C 5,9 km/h (2 Bft)
12.12.2009 23:49 3,4 C 76 % 1027,5 hPa 0,0 l/m 1,5 km/h (1 Bft) NO 45 0 min 0 W/m -0,4 C 3,4 C 1,5 km/h (1 Bft)
12.12.2009 23:54 3,4 C 76 % 1027,5 hPa 0,0 l/m 9,3 km/h (2 Bft) NO 35 0 min 0 W/m -0,4 C 0,8 C 9,3 km/h (2 Bft)
12.12.2009 23:59 3,4 C 76 % 1027,5 hPa 0,0 l/m 11,1 km/h (2 Bft) NO 40 0 min 0 W/m -0,4 C -0,5 C 11,1 km/h (2 Bft)
_ Min-Zeit 23:49 13:59 00:04 - 23:49 - - - - 16:19 16:29 23:49
Minimum _ 3,4 C 70 % 1027,5 hPa - 1,5 km/h (1 Bft) - - - - -0,8 C -5,7 C 1,5 km/h (1 Bft)
_ Max-Zeit 12:19 00:29 10:34 00:04 16:29 - - 00:04 00:04 11:59 11:49 16:29
Maximum _ 6,2 C 84 % 1029,5 hPa 0,0 l/m 23,2 km/h
NO (4 Bft)
- - 0 min 0 W/m 2,5 C 4,6 C 23,2 km/h
NO (4 Bft)
Durchschnitt _ 4,6 C 77 % 1028,3 hPa #0,0 l/m 13,2 km/h (3 Bft) NO - #0 min. 0 W/m 0,9 C -0,2 C 13,2 km/h (3 Bft)
copyright by Holger Just